Sy Asahi — ZGBG5 — position and weather

sailwx.info

Track history (hours):
 
Tides and Currents Weather Stations Pressure Air Temp Water Temp Dewpoint Dewpoint Depression Visibility Wind Speed Wind Dir Waves Ship Positions

Sy Asahi

Last reported at 2017-Jul-05 08:20 UTC. Time now 2017-Jul-22 04:36 UTC.
Position N 32°01' W 081°03'.
Warning: this ship's position is 16 days out of date.

Length 56 m; draft 4 m.

Type: Pleasure craft. MMSI: 319266000.

Date/timePositionNaut miles runAvg speedWind from/ knotsBaromVisibWave heightAir tempDewpointWater temp
2017-Jul-05 08:20N 32°01' W 081°03'0 0.0
2017-Jul-05 07:56N 32°01' W 081°03'0 0.0
2017-Jul-05 07:26N 32°01' W 081°03'0 0.0
2017-Jul-05 06:56N 32°01' W 081°03'0 0.0
2017-Jul-05 06:26N 32°01' W 081°03'0 0.0
2017-Jul-05 05:44N 32°01' W 081°03'0 0.0
2017-Jul-05 05:08N 32°01' W 081°03'0 0.0
2017-Jul-05 04:50N 32°01' W 081°03'0 0.0
2017-Jul-05 04:02N 32°01' W 081°03'0 0.0
2017-Jul-05 03:56N 32°01' W 081°03'0 0.0
2017-Jul-05 03:14N 32°01' W 081°03'0 0.0
2017-Jul-05 02:44N 32°01' W 081°03'0 0.0
2017-Jul-05 02:26N 32°01' W 081°03'0 0.0
2017-Jul-05 01:56N 32°01' W 081°03'0 0.0
2017-Jul-05 01:20N 32°01' W 081°03'0 0.0
2017-Jul-05 00:56N 32°01' W 081°03'0 0.0
2017-Jul-05 00:26N 32°01' W 081°03'0 0.0
2017-Jul-04 23:56N 32°01' W 081°03'0 0.0
2017-Jul-04 23:26N 32°01' W 081°03'0 0.0
2017-Jul-04 22:56N 32°01' W 081°03'0 0.0
2017-Jul-04 22:26N 32°01' W 081°03'0 0.0
2017-Jul-04 21:56N 32°01' W 081°03'0 0.0
2017-Jul-04 21:26N 32°01' W 081°03'0 0.0
2017-Jul-04 20:56N 32°01' W 081°03'0 0.0
2017-Jul-04 20:26N 32°01' W 081°03'0 0.0
2017-Jul-04 19:56N 32°01' W 081°03'0 0.0
2017-Jul-04 19:26N 32°01' W 081°03'0 0.0
2017-Jul-04 18:56N 32°01' W 081°03'0 0.0
2017-Jul-04 18:26N 32°01' W 081°03'0 0.0
2017-Jul-04 17:56N 32°01' W 081°03'0 0.0
2017-Jul-04 17:26N 32°01' W 081°03'0 0.0
2017-Jul-04 16:56N 32°01' W 081°03'0 0.0
2017-Jul-04 16:20N 32°01' W 081°03'0 0.0
2017-Jul-04 15:56N 32°01' W 081°03'0 0.0
2017-Jul-04 15:26N 32°01' W 081°03'0 0.0
2017-Jul-04 14:50N 32°01' W 081°03'0 0.0
2017-Jul-04 13:56N 32°01' W 081°03'0 0.0
2017-Jul-04 13:26N 32°01' W 081°03'0 0.0
2017-Jul-04 12:56N 32°01' W 081°03'0 0.0
2017-Jul-04 12:26N 32°01' W 081°03'0 0.0
2017-Jul-04 11:56N 32°01' W 081°03'0 0.0
2017-Jul-04 11:26N 32°01' W 081°03'0 0.0
2017-Jul-04 10:50N 32°01' W 081°03'0 0.0
2017-Jul-04 10:26N 32°01' W 081°03'0 0.0
2017-Jul-04 09:50N 32°01' W 081°03'0 0.0
2017-Jul-04 09:26N 32°01' W 081°03'0 0.0
2017-Jul-04 08:56N 32°01' W 081°03'0 0.0
2017-Jul-04 08:26N 32°01' W 081°03'0 0.0
2017-Jul-04 07:56N 32°01' W 081°03'0 0.0
2017-Jul-04 07:26N 32°01' W 081°03'0 0.0
2017-Jul-04 06:50N 32°01' W 081°03'0 0.0
2017-Jul-04 06:26N 32°01' W 081°03'0 0.0
2017-Jul-04 05:56N 32°01' W 081°03'0 0.0
2017-Jul-04 05:26N 32°01' W 081°03'0 0.0
2017-Jul-04 04:38N 32°01' W 081°03'0 0.0
2017-Jul-04 04:14N 32°01' W 081°03'0 0.0
2017-Jul-04 03:56N 32°01' W 081°03'0 0.0
2017-Jul-04 03:26N 32°01' W 081°03'0 0.0
2017-Jul-04 02:56N 32°01' W 081°03'0 0.0
2017-Jul-04 02:26N 32°01' W 081°03'0 0.0
2017-Jul-04 01:56N 32°01' W 081°03'0 0.0
2017-Jul-04 01:20N 32°01' W 081°03'0 0.0
2017-Jul-04 00:56N 32°01' W 081°03'0 0.0
2017-Jul-04 00:16N 32°01' W 081°03'0 0.0
2017-Jul-04 00:00N 32°01' W 081°03'0 0.0
2017-Jul-03 23:30N 32°01' W 081°03'0 0.0
2017-Jul-03 23:01N 32°01' W 081°03'0 0.0
2017-Jul-03 22:30N 32°01' W 081°03'0 0.0
2017-Jul-03 22:00N 32°01' W 081°03'0 0.0
2017-Jul-03 21:30N 32°01' W 081°03'0 0.0
2017-Jul-03 21:01N 32°01' W 081°03'1 1.5
2017-Jul-03 20:30N 32°01' W 081°02'4 7.8
2017-Jul-03 20:00N 31°58' W 081°00'611.3
2017-Jul-03 19:30N 31°55' W 080°55'3 7.0
2017-Jul-03 19:00N 31°51' W 080°53'2 4.7
2017-Jul-03 18:30N 31°52' W 080°50'3 5.3
2017-Jul-03 18:01N 31°52' W 080°47'3 6.7
2017-Jul-03 17:30N 31°52' W 080°43'3 6.7
2017-Jul-03 17:00N 31°53' W 080°39'3 6.6
2017-Jul-03 16:30N 31°53' W 080°36'3 6.5
2017-Jul-03 16:00N 31°54' W 080°32'3 6.4
2017-Jul-03 15:28N 31°54' W 080°28'5 6.0
2017-Jul-03 14:43N 31°54' W 080°23'6 8.2
2017-Jul-03 13:58N 31°55' W 080°15'  
Track history (hours):
 
Tides and Currents Weather Stations Pressure Air Temp Water Temp Dewpoint Dewpoint Depression Visibility Wind Speed Wind Dir Waves Ship Positions

Sy Asahi

Last reported at 2017-Jul-05 08:20 UTC. Time now 2017-Jul-22 04:36 UTC.
Position N 32°01' W 081°03'.
Warning: this ship's position is 16 days out of date.

Length 56 m; draft 4 m.

Type: Pleasure craft. MMSI: 319266000.

Date/timePositionNaut miles runAvg speedWind from/ knotsBaromVisibWave heightAir tempDewpointWater temp
2017-Jul-05 08:20N 32°01' W 081°03'0 0.0
2017-Jul-05 07:56N 32°01' W 081°03'0 0.0
2017-Jul-05 07:26N 32°01' W 081°03'0 0.0
2017-Jul-05 06:56N 32°01' W 081°03'0 0.0
2017-Jul-05 06:26N 32°01' W 081°03'0 0.0
2017-Jul-05 05:44N 32°01' W 081°03'0 0.0
2017-Jul-05 05:08N 32°01' W 081°03'0 0.0
2017-Jul-05 04:50N 32°01' W 081°03'0 0.0
2017-Jul-05 04:02N 32°01' W 081°03'0 0.0
2017-Jul-05 03:56N 32°01' W 081°03'0 0.0
2017-Jul-05 03:14N 32°01' W 081°03'0 0.0
2017-Jul-05 02:44N 32°01' W 081°03'0 0.0
2017-Jul-05 02:26N 32°01' W 081°03'0 0.0
2017-Jul-05 01:56N 32°01' W 081°03'0 0.0
2017-Jul-05 01:20N 32°01' W 081°03'0 0.0
2017-Jul-05 00:56N 32°01' W 081°03'0 0.0
2017-Jul-05 00:26N 32°01' W 081°03'0 0.0
2017-Jul-04 23:56N 32°01' W 081°03'0 0.0
2017-Jul-04 23:26N 32°01' W 081°03'0 0.0
2017-Jul-04 22:56N 32°01' W 081°03'0 0.0
2017-Jul-04 22:26N 32°01' W 081°03'0 0.0
2017-Jul-04 21:56N 32°01' W 081°03'0 0.0
2017-Jul-04 21:26N 32°01' W 081°03'0 0.0
2017-Jul-04 20:56N 32°01' W 081°03'0 0.0
2017-Jul-04 20:26N 32°01' W 081°03'0 0.0
2017-Jul-04 19:56N 32°01' W 081°03'0 0.0
2017-Jul-04 19:26N 32°01' W 081°03'0 0.0
2017-Jul-04 18:56N 32°01' W 081°03'0 0.0
2017-Jul-04 18:26N 32°01' W 081°03'0 0.0
2017-Jul-04 17:56N 32°01' W 081°03'0 0.0
2017-Jul-04 17:26N 32°01' W 081°03'0 0.0
2017-Jul-04 16:56N 32°01' W 081°03'0 0.0
2017-Jul-04 16:20N 32°01' W 081°03'0 0.0
2017-Jul-04 15:56N 32°01' W 081°03'0 0.0
2017-Jul-04 15:26N 32°01' W 081°03'0 0.0
2017-Jul-04 14:50N 32°01' W 081°03'0 0.0
2017-Jul-04 13:56N 32°01' W 081°03'0 0.0
2017-Jul-04 13:26N 32°01' W 081°03'0 0.0
2017-Jul-04 12:56N 32°01' W 081°03'0 0.0
2017-Jul-04 12:26N 32°01' W 081°03'0 0.0
2017-Jul-04 11:56N 32°01' W 081°03'0 0.0
2017-Jul-04 11:26N 32°01' W 081°03'0 0.0
2017-Jul-04 10:50N 32°01' W 081°03'0 0.0
2017-Jul-04 10:26N 32°01' W 081°03'0 0.0
2017-Jul-04 09:50N 32°01' W 081°03'0 0.0
2017-Jul-04 09:26N 32°01' W 081°03'0 0.0
2017-Jul-04 08:56N 32°01' W 081°03'0 0.0
2017-Jul-04 08:26N 32°01' W 081°03'0 0.0
2017-Jul-04 07:56N 32°01' W 081°03'0 0.0
2017-Jul-04 07:26N 32°01' W 081°03'0 0.0
2017-Jul-04 06:50N 32°01' W 081°03'0 0.0
2017-Jul-04 06:26N 32°01' W 081°03'0 0.0
2017-Jul-04 05:56N 32°01' W 081°03'0 0.0
2017-Jul-04 05:26N 32°01' W 081°03'0 0.0
2017-Jul-04 04:38N 32°01' W 081°03'0 0.0
2017-Jul-04 04:14N 32°01' W 081°03'0 0.0
2017-Jul-04 03:56N 32°01' W 081°03'0 0.0
2017-Jul-04 03:26N 32°01' W 081°03'0 0.0
2017-Jul-04 02:56N 32°01' W 081°03'0 0.0
2017-Jul-04 02:26N 32°01' W 081°03'0 0.0
2017-Jul-04 01:56N 32°01' W 081°03'0 0.0
2017-Jul-04 01:20N 32°01' W 081°03'0 0.0
2017-Jul-04 00:56N 32°01' W 081°03'0 0.0
2017-Jul-04 00:16N 32°01' W 081°03'0 0.0
2017-Jul-04 00:00N 32°01' W 081°03'0 0.0
2017-Jul-03 23:30N 32°01' W 081°03'0 0.0
2017-Jul-03 23:01N 32°01' W 081°03'0 0.0
2017-Jul-03 22:30N 32°01' W 081°03'0 0.0
2017-Jul-03 22:00N 32°01' W 081°03'0 0.0
2017-Jul-03 21:30N 32°01' W 081°03'0 0.0
2017-Jul-03 21:01N 32°01' W 081°03'1 1.5
2017-Jul-03 20:30N 32°01' W 081°02'4 7.8
2017-Jul-03 20:00N 31°58' W 081°00'611.3
2017-Jul-03 19:30N 31°55' W 080°55'3 7.0
2017-Jul-03 19:00N 31°51' W 080°53'2 4.7
2017-Jul-03 18:30N 31°52' W 080°50'3 5.3
2017-Jul-03 18:01N 31°52' W 080°47'3 6.7
2017-Jul-03 17:30N 31°52' W 080°43'3 6.7
2017-Jul-03 17:00N 31°53' W 080°39'3 6.6
2017-Jul-03 16:30N 31°53' W 080°36'3 6.5
2017-Jul-03 16:00N 31°54' W 080°32'3 6.4
2017-Jul-03 15:28N 31°54' W 080°28'5 6.0
2017-Jul-03 14:43N 31°54' W 080°23'6 8.2
2017-Jul-03 13:58N 31°55' W 080°15'  

Dump ship's entire track history